Aviation Digital Data Service (ADDS)

Output produced by TAFs form (1307 UTC 30 July 2014)
found at http://aviationweather.gov/adds/tafs/
 
KEGE 301142Z 3012/3112 VRB04KT P6SM BKN100 
     FM302000 25008KT P6SM -TSRA SCT050CB BKN080 
     FM310200 09005KT P6SM -RA OVC050 
     FM310600 12003KT P6SM VCSH SCT060 BKN090 AMD LTD TO CLD VIS AND WIND TIL 301300